createdAt,value
2019-06-20T00:04:03.151Z,19.30
2019-06-20T00:09:06.868Z,19.20
2019-06-20T00:14:08.918Z,19.10
2019-06-20T00:19:10.698Z,19.00
2019-06-20T00:24:12.297Z,19.00
2019-06-20T00:29:13.907Z,18.90
2019-06-20T00:34:15.486Z,18.90
2019-06-20T00:39:17.285Z,18.80
2019-06-20T00:44:18.969Z,18.80
2019-06-20T00:49:20.568Z,18.60
2019-06-20T00:54:22.437Z,18.50
2019-06-20T00:59:24.241Z,18.40
2019-06-20T01:04:25.833Z,18.50
2019-06-20T01:09:27.597Z,18.60
2019-06-20T01:14:29.659Z,18.70
2019-06-20T01:19:31.522Z,18.90
2019-06-20T01:24:33.438Z,19.20
2019-06-20T01:29:35.422Z,19.10
2019-06-20T01:34:37.292Z,19.20
2019-06-20T01:39:38.946Z,19.10
2019-06-20T01:44:40.689Z,19.40
2019-06-20T01:49:42.290Z,20.00
2019-06-20T01:54:43.873Z,20.60
2019-06-20T01:59:45.705Z,20.30
2019-06-20T02:04:47.393Z,20.20
2019-06-20T02:09:49.120Z,20.00
2019-06-20T02:14:50.993Z,19.90
2019-06-20T02:19:52.786Z,20.00
2019-06-20T02:24:54.393Z,19.80
2019-06-20T02:29:55.994Z,19.50
2019-06-20T02:34:57.851Z,19.40
2019-06-20T02:39:59.484Z,19.00
2019-06-20T02:45:01.171Z,19.10
2019-06-20T02:50:04.756Z,19.00
2019-06-20T02:55:06.557Z,18.80
2019-06-20T03:00:10.005Z,18.70
2019-06-20T03:05:12.224Z,18.80
2019-06-20T03:10:14.352Z,18.60
2019-06-20T03:15:17.333Z,18.60
2019-06-20T03:20:19.055Z,18.40
2019-06-20T03:25:21.271Z,18.40
2019-06-20T03:30:23.592Z,18.30
2019-06-20T03:35:25.572Z,18.30
2019-06-20T03:40:27.598Z,18.20
2019-06-20T03:45:29.683Z,18.50
2019-06-20T03:50:32.275Z,18.70
2019-06-20T03:55:34.082Z,19.00
2019-06-20T04:00:36.073Z,19.00
2019-06-20T04:05:37.796Z,18.90
2019-06-20T04:10:39.637Z,18.90
2019-06-20T04:15:41.720Z,18.60
2019-06-20T04:20:43.527Z,18.50
2019-06-20T04:25:45.512Z,18.60
2019-06-20T04:30:47.130Z,18.60
2019-06-20T04:35:49.004Z,18.70
2019-06-20T04:40:50.701Z,18.90
2019-06-20T04:45:54.518Z,19.20
2019-06-20T04:50:56.101Z,19.20
2019-06-20T04:55:57.683Z,19.00
2019-06-20T05:00:59.279Z,19.30
2019-06-20T05:06:01.033Z,19.70
2019-06-20T05:11:03.010Z,19.90
2019-06-20T05:16:04.809Z,20.00
2019-06-20T05:21:06.507Z,20.10
2019-06-20T05:26:08.103Z,20.30
2019-06-20T05:31:09.814Z,20.50
2019-06-20T05:36:11.594Z,20.70
2019-06-20T05:41:13.283Z,20.80
2019-06-20T05:46:14.978Z,21.10
2019-06-20T05:51:16.697Z,21.20
2019-06-20T05:56:18.593Z,21.40
2019-06-20T06:01:20.590Z,21.60
2019-06-20T06:06:22.212Z,21.70
2019-06-20T06:11:23.823Z,21.70
2019-06-20T06:16:28.304Z,22.10
2019-06-20T06:21:29.318Z,22.50
2019-06-20T06:26:31.231Z,22.80
2019-06-20T06:31:33.297Z,22.80
2019-06-20T06:36:34.877Z,22.90
2019-06-20T06:41:36.781Z,23.20
2019-06-20T06:46:44.886Z,23.30
2019-06-20T06:51:42.490Z,23.40
2019-06-20T06:56:44.100Z,23.40
2019-06-20T07:01:46.204Z,23.40
2019-06-20T07:06:47.843Z,23.10
2019-06-20T07:11:49.454Z,22.80
2019-06-20T07:17:00.226Z,22.30
2019-06-20T07:21:54.748Z,21.60
2019-06-20T07:26:56.445Z,21.40
2019-06-20T07:31:58.327Z,21.40
2019-06-20T07:36:59.924Z,21.40
2019-06-20T07:42:01.942Z,21.20
2019-06-20T07:47:16.555Z,21.30
2019-06-20T07:52:07.275Z,21.00
2019-06-20T07:57:08.860Z,21.20
2019-06-20T08:02:10.765Z,21.40
2019-06-20T08:07:13.584Z,21.40
2019-06-20T08:12:16.764Z,21.40
2019-06-20T08:17:34.257Z,21.20
2019-06-20T08:22:22.264Z,21.20
2019-06-20T08:27:42.715Z,21.00
2019-06-20T08:32:44.533Z,21.20
2019-06-20T08:37:46.554Z,21.70
2019-06-20T08:42:48.389Z,22.10
2019-06-20T08:47:50.169Z,22.30
2019-06-20T08:52:51.972Z,22.30
2019-06-20T08:57:55.666Z,22.10
2019-06-20T09:02:58.313Z,22.60
2019-06-20T09:13:05.166Z,22.90
2019-06-20T09:18:07.666Z,23.20
2019-06-20T09:23:09.770Z,22.90
2019-06-20T09:28:11.362Z,22.90
2019-06-20T09:33:13.403Z,22.90
2019-06-20T09:38:15.281Z,22.90
2019-06-20T09:43:27.103Z,23.20
2019-06-20T09:48:20.780Z,23.60
2019-06-20T09:53:22.381Z,23.40
2019-06-20T09:58:24.335Z,23.00
2019-06-20T10:03:25.999Z,22.60
2019-06-20T10:08:27.593Z,22.50
2019-06-20T10:13:32.680Z,22.30
2019-06-20T10:18:33.179Z,22.40
2019-06-20T10:23:34.858Z,22.70
2019-06-20T10:28:36.451Z,22.50
2019-06-20T10:33:38.350Z,22.80
2019-06-20T10:38:39.953Z,23.10
2019-06-20T10:43:41.670Z,24.70
2019-06-20T10:48:44.315Z,24.80
2019-06-20T10:53:47.132Z,24.20
2019-06-20T10:58:48.897Z,24.30
2019-06-20T11:03:50.685Z,24.90
2019-06-20T11:08:52.631Z,25.60
2019-06-20T11:13:54.418Z,26.10
2019-06-20T11:18:56.111Z,26.50
2019-06-20T11:23:58.160Z,26.90
2019-06-20T11:28:59.851Z,26.70
2019-06-20T11:34:01.814Z,26.70
2019-06-20T11:39:06.106Z,27.20
2019-06-20T11:44:07.824Z,27.60
2019-06-20T11:49:09.509Z,27.50
2019-06-20T11:54:11.191Z,27.40
2019-06-20T11:59:13.006Z,26.60
2019-06-20T12:04:14.806Z,26.30
2019-06-20T12:09:16.505Z,27.30
2019-06-20T12:14:18.224Z,28.20
2019-06-20T12:19:19.839Z,27.70
2019-06-20T12:24:21.923Z,28.90
2019-06-20T12:29:23.976Z,28.50
2019-06-20T12:34:25.572Z,28.20
2019-06-20T12:39:27.295Z,28.30
2019-06-20T12:44:29.030Z,28.20
2019-06-20T12:49:31.182Z,28.80
2019-06-20T12:54:32.845Z,29.10
2019-06-20T12:59:34.960Z,28.30
2019-06-20T13:04:38.228Z,27.60
2019-06-20T13:09:41.075Z,28.20
2019-06-20T13:14:45.674Z,27.60
2019-06-20T13:19:48.550Z,26.80
2019-06-20T13:24:50.558Z,28.00
2019-06-20T13:29:52.250Z,28.30
2019-06-20T13:34:53.849Z,27.30
2019-06-20T13:39:55.442Z,26.70
2019-06-20T13:44:57.070Z,27.10
2019-06-20T13:49:58.661Z,27.70
2019-06-20T13:55:00.362Z,28.00
2019-06-20T14:00:05.760Z,28.00
2019-06-20T14:05:08.052Z,28.40
2019-06-20T14:10:10.719Z,28.20
2019-06-20T14:15:13.639Z,28.10
2019-06-20T14:20:16.255Z,28.10
2019-06-20T14:25:19.357Z,28.10
2019-06-20T14:30:21.725Z,28.00
2019-06-20T14:35:23.895Z,26.80
2019-06-20T14:40:25.609Z,26.20
2019-06-20T14:45:27.314Z,25.90
2019-06-20T14:50:29.315Z,25.90
2019-06-20T14:55:31.010Z,25.10
2019-06-20T15:00:32.902Z,24.70
2019-06-20T15:05:34.971Z,24.40
2019-06-20T15:10:36.900Z,24.40
2019-06-20T15:15:38.517Z,24.30
2019-06-20T15:20:40.121Z,24.00
2019-06-20T15:25:42.138Z,24.20
2019-06-20T15:30:43.733Z,24.50
2019-06-20T15:35:45.330Z,25.60
2019-06-20T15:40:48.037Z,26.50
2019-06-20T15:45:51.986Z,27.90
2019-06-20T15:50:53.760Z,28.20
2019-06-20T15:55:55.661Z,28.20
2019-06-20T16:00:57.260Z,27.60
2019-06-20T16:05:58.854Z,27.00
2019-06-20T16:11:00.848Z,27.90
2019-06-20T16:16:02.783Z,27.80
2019-06-20T16:21:04.851Z,28.10
2019-06-20T16:26:06.435Z,28.30
2019-06-20T16:31:23.005Z,28.60
2019-06-20T16:36:13.231Z,28.40
2019-06-20T16:41:15.189Z,28.20
2019-06-20T16:46:17.313Z,28.10
2019-06-20T16:51:19.107Z,27.60
2019-06-20T16:56:21.071Z,27.70
2019-06-20T17:01:22.956Z,27.70
2019-06-20T17:06:24.899Z,27.00
2019-06-20T17:11:26.574Z,26.80
2019-06-20T17:16:28.181Z,26.60
2019-06-20T17:21:31.329Z,26.50
2019-06-20T17:26:32.945Z,26.30
2019-06-20T17:31:34.643Z,25.60
2019-06-20T17:36:36.441Z,25.30
2019-06-20T17:41:38.081Z,25.00
2019-06-20T17:46:41.222Z,24.80
2019-06-20T17:51:43.008Z,24.70
2019-06-20T17:56:44.819Z,24.70
2019-06-20T18:01:46.516Z,24.70
2019-06-20T18:06:48.637Z,24.50
2019-06-20T18:11:50.440Z,24.30
2019-06-20T18:16:52.087Z,24.20
2019-06-20T18:21:53.879Z,24.00
2019-06-20T18:26:55.957Z,23.90
2019-06-20T18:31:58.617Z,23.80
2019-06-20T18:37:00.828Z,23.70
2019-06-20T18:42:02.719Z,23.50
2019-06-20T18:47:04.660Z,23.30
2019-06-20T18:52:06.595Z,23.20
2019-06-20T18:57:08.330Z,23.10
2019-06-20T19:02:10.217Z,22.90
2019-06-20T19:07:11.874Z,22.70
2019-06-20T19:12:13.494Z,22.50
2019-06-20T19:17:16.364Z,22.40
2019-06-20T19:22:18.089Z,22.20
2019-06-20T19:27:19.688Z,22.00
2019-06-20T19:32:21.276Z,21.80
2019-06-20T19:37:22.918Z,21.70
2019-06-20T19:42:24.886Z,21.60
2019-06-20T19:47:26.671Z,21.50
2019-06-20T19:52:28.658Z,21.40
2019-06-20T19:57:30.488Z,21.40
2019-06-20T20:02:32.382Z,21.30
2019-06-20T20:07:35.074Z,21.30
2019-06-20T20:12:36.832Z,21.40
2019-06-20T20:17:38.598Z,21.40
2019-06-20T20:22:40.209Z,21.10
2019-06-20T20:27:42.182Z,21.10
2019-06-20T20:32:43.781Z,20.90
2019-06-20T20:37:45.532Z,20.90
2019-06-20T20:42:48.316Z,20.80
2019-06-20T20:47:50.503Z,20.80
2019-06-20T20:52:52.361Z,20.80
2019-06-20T20:57:54.059Z,20.80
2019-06-20T21:02:56.030Z,20.60
2019-06-20T21:07:57.730Z,20.60
2019-06-20T21:12:59.624Z,20.50
2019-06-20T21:18:01.343Z,20.50
2019-06-20T21:23:03.250Z,20.60
2019-06-20T21:28:04.962Z,20.50
2019-06-20T21:33:06.678Z,20.40
2019-06-20T21:38:08.259Z,20.40
2019-06-20T21:43:09.866Z,20.30
2019-06-20T21:48:13.064Z,20.20
2019-06-20T21:53:14.653Z,20.20
2019-06-20T21:58:16.259Z,20.10
2019-06-20T22:03:18.258Z,20.10
2019-06-20T22:08:20.030Z,20.10
2019-06-20T22:13:21.722Z,20.10
2019-06-20T22:18:23.764Z,20.10
2019-06-20T22:23:25.838Z,20.20
2019-06-20T22:28:27.536Z,20.20
2019-06-20T22:33:29.325Z,20.30
2019-06-20T22:38:31.712Z,20.30
2019-06-20T22:43:33.806Z,20.30
2019-06-20T22:48:35.521Z,20.20
2019-06-20T22:53:37.109Z,20.30
2019-06-20T22:58:38.987Z,20.50
2019-06-20T23:03:40.948Z,20.40
2019-06-20T23:08:42.816Z,20.40
2019-06-20T23:13:44.776Z,20.10
2019-06-20T23:18:46.503Z,19.90
2019-06-20T23:23:48.141Z,19.60
2019-06-20T23:29:01.573Z,19.50
2019-06-20T23:34:03.747Z,19.30
2019-06-20T23:39:05.964Z,19.40
2019-06-20T23:44:07.950Z,19.30
2019-06-20T23:49:09.563Z,19.20
2019-06-20T23:54:11.254Z,19.10
2019-06-20T23:59:12.855Z,19.00
